2005 BENTO:BENTOJANA (2004325S06078)


On this page: IBTrACS data - Map and Plots - Positions - Intensities - Original source data

Summary

Start Nov 19
End Dec 4
Basin SI
LMI 140 kt
Sources jtwc_sh
reunion
neumann
In WMO? Yes
Previous storm 2004 MUIFA (WP)
Previous in basin 2005 AROLA (SI)
Concurrent storms 2004 MUIFA (WP)
2005 BENTO (SI)
2004 MERBOK (WP)
2004 OTTO (NA)
2004 MISSING (NI)
2004 NANMADOL (WP)
2005 MISSING (SI)
Next in basin 2005 MISSING (SI)
Next storm 2004 MERBOK (WP)

top of page IBTrACS Data: File Access

No storm imagery available

top of page Plots:

Map of storm track will not appear if FTP is down
Time series of cyclone Maximum Sustained Wind will not appear if FTP is down
Time series of cyclone Minimum Central Pressure will not appear if FTP is down

top of page Track Data:Position

jtwc_sh reunion neumann
Date Lat Lon Lat Lon Lat Lon
2004-11-19 12:00:00 -6.1 77.9
2004-11-19 18:00:00 -7.4 77.8 -6.5 78.0 -7.4 77.8
2004-11-20 00:00:00 -7.5 77.6 -6.9 78.1 -7.5 77.6
2004-11-20 06:00:00 -7.7 77.5 -7.3 78.1 -7.7 77.5
2004-11-20 12:00:00 -7.9 77.6 -7.8 78.1 -7.9 77.6
2004-11-20 18:00:00 -8.0 77.9 -7.9 78.5 -8.0 77.9
2004-11-21 00:00:00 -8.1 78.2 -8.0 78.8 -8.1 78.2
2004-11-21 06:00:00 -8.2 78.4 -8.0 79.1 -8.2 78.4
2004-11-21 12:00:00 -8.3 78.5 -8.2 79.1 -8.3 78.5
2004-11-21 18:00:00 -8.4 78.5 -8.6 78.7 -8.4 78.5
2004-11-22 00:00:00 -8.5 78.4 -8.7 78.4 -8.5 78.4
2004-11-22 06:00:00 -8.7 77.9 -8.9 77.8 -8.7 77.9
2004-11-22 12:00:00 -8.5 77.2 -8.7 77.2 -8.5 77.2
2004-11-22 18:00:00 -8.3 76.7 -8.4 76.7 -8.3 76.7
2004-11-23 00:00:00 -8.2 76.2 -8.3 76.3 -8.2 76.2
2004-11-23 06:00:00 -8.2 75.8 -8.3 75.8 -8.2 75.8
2004-11-23 12:00:00 -8.3 75.2 -8.5 75.2 -8.3 75.2
2004-11-23 18:00:00 -8.5 74.7 -8.5 74.7 -8.5 74.7
2004-11-24 00:00:00 -8.8 74.2 -8.9 74.3 -8.8 74.2
2004-11-24 06:00:00 -9.1 73.8 -9.2 73.9 -9.1 73.8
2004-11-24 12:00:00 -9.5 73.4 -9.6 73.4 -9.5 73.4
2004-11-24 18:00:00 -9.9 73.3 -9.8 73.3 -9.9 73.3
2004-11-25 00:00:00 -10.2 73.3 -10.0 73.4 -10.2 73.3
2004-11-25 06:00:00 -10.8 73.4 -10.7 73.5 -10.8 73.4
2004-11-25 12:00:00 -11.3 73.6 -11.5 73.6 -11.3 73.6
jtwc_sh reunion neumann
2004-11-25 18:00:00 -11.9 73.8 -12.0 73.8 -11.9 73.8
2004-11-26 00:00:00 -12.4 74.0 -12.4 74.0 -12.4 74.0
2004-11-26 06:00:00 -13.1 74.3 -12.9 74.2 -13.1 74.3
2004-11-26 12:00:00 -13.6 74.7 -13.6 74.7 -13.6 74.7
2004-11-26 18:00:00 -14.1 75.0 -14.1 75.1 -14.1 75.0
2004-11-27 00:00:00 -14.5 75.4 -14.6 75.6 -14.5 75.4
2004-11-27 06:00:00 -14.9 75.9 -15.1 75.9 -14.9 75.9
2004-11-27 12:00:00 -15.3 76.4 -15.4 76.4 -15.3 76.4
2004-11-27 18:00:00 -15.6 76.9 -15.6 76.9 -15.6 76.9
2004-11-28 00:00:00 -15.8 77.2 -15.7 77.4 -15.8 77.2
2004-11-28 06:00:00 -16.0 77.3 -16.0 77.4 -16.0 77.3
2004-11-28 12:00:00 -16.2 77.2 -16.1 77.2 -16.2 77.2
2004-11-28 18:00:00 -16.3 76.8 -16.2 76.8 -16.3 76.8
2004-11-29 00:00:00 -16.4 76.4 -16.4 76.4 -16.4 76.4
2004-11-29 06:00:00 -16.5 75.8 -16.5 75.9 -16.5 75.8
2004-11-29 12:00:00 -16.6 75.1 -16.6 75.1 -16.6 75.1
2004-11-29 18:00:00 -16.8 74.2 -16.8 74.2 -16.8 74.2
2004-11-30 00:00:00 -17.0 73.4 -17.0 73.5 -17.0 73.4
2004-11-30 06:00:00 -17.3 72.7 -17.4 72.5 -17.3 72.7
2004-11-30 12:00:00 -17.5 71.7 -17.7 71.5 -17.5 71.7
2004-11-30 18:00:00 -17.6 70.8 -17.9 70.5 -17.6 70.8
2004-12-01 00:00:00 -18.0 69.8 -18.0 69.5 -18.0 69.8
2004-12-01 06:00:00 -18.1 68.9 -18.0 68.7 -18.1 68.9
2004-12-01 12:00:00 -17.9 67.9 -17.9 67.8 -17.9 67.9
jtwc_sh reunion neumann
2004-12-01 18:00:00 -17.8 66.9 -17.8 66.8 -17.8 66.9
2004-12-02 00:00:00 -17.7 65.8 -17.7 65.8 -17.7 65.8
2004-12-02 06:00:00 -17.6 64.3 -17.7 64.3 -17.6 64.3
2004-12-02 12:00:00 -17.5 62.7 -17.6 62.5 -17.5 62.7
2004-12-02 18:00:00 -17.5 61.0 -17.5 60.7 -17.5 61.0
2004-12-03 00:00:00 -17.3 59.4 -17.4 58.9 -17.3 59.4
2004-12-03 06:00:00 -17.2 57.7 -17.4 57.1 -17.2 57.7
2004-12-03 12:00:00 -16.9 56.3 -17.1 55.7 -16.9 56.3
2004-12-03 18:00:00 -16.9 54.7 -16.9 54.1 -16.9 54.7
2004-12-04 00:00:00 -16.9 52.9 -16.6 52.5 -16.9 52.9
2004-12-04 06:00:00 -16.3 51.1

top of pageTrack Data:Intensity

jtwc_sh reunion neumann
Date Wind Pres Wind Pres Wind Pres
2004-11-19 12:00:00 20. 1007.
2004-11-19 18:00:00 15. 1006. 20. 1006. 15.
2004-11-20 00:00:00 20. 1004. 20. 1005. 20.
2004-11-20 06:00:00 25. 1002. 25. 1004. 25.
2004-11-20 12:00:00 25. 1002. 25. 1003. 25.
2004-11-20 18:00:00 25. 1002. 25. 1002. 25.
2004-11-21 00:00:00 30. 1000. 30. 1000. 30.
2004-11-21 06:00:00 35. 997. 33. 998. 35.
2004-11-21 12:00:00 45. 991. 35. 996. 45.
2004-11-21 18:00:00 55. 984. 43. 992. 55.
2004-11-22 00:00:00 55. 984. 50. 987. 55.
2004-11-22 06:00:00 65. 976. 55. 982. 65.
2004-11-22 12:00:00 80. 963. 65. 972. 80.
2004-11-22 18:00:00 100. 944. 85. 950. 100.
2004-11-23 00:00:00 120. 922. 100. 932. 120.
2004-11-23 06:00:00 125. 916. 110. 920. 125.
2004-11-23 12:00:00 130. 910. 115. 915. 130.
2004-11-23 18:00:00 140. 898. 115. 915. 140.
2004-11-24 00:00:00 140. 898. 110. 920. 140.
2004-11-24 06:00:00 140. 898. 105. 928. 140.
2004-11-24 12:00:00 130. 910. 105. 930. 130.
2004-11-24 18:00:00 120. 922. 100. 935. 120.
2004-11-25 00:00:00 110. 933. 90. 945. 110.
2004-11-25 06:00:00 100. 944. 80. 958. 100.
2004-11-25 12:00:00 90. 954. 75. 962. 90.
jtwc_sh reunion neumann
2004-11-25 18:00:00 80. 963. 70. 968. 80.
2004-11-26 00:00:00 75. 967. 65. 972. 75.
2004-11-26 06:00:00 65. 976. 60. 978. 65.
2004-11-26 12:00:00 65. 976. 57. 980. 65.
2004-11-26 18:00:00 65. 976. 60. 978. 65.
2004-11-27 00:00:00 65. 976. 70. 968. 65.
2004-11-27 06:00:00 65. 976. 70. 968. 65.
2004-11-27 12:00:00 60. 980. 65. 972. 60.
2004-11-27 18:00:00 60. 980. 60. 978. 60.
2004-11-28 00:00:00 55. 984. 55. 982. 55.
2004-11-28 06:00:00 55. 984. 50. 988. 55.
2004-11-28 12:00:00 35. 997. 45. 990. 35.
2004-11-28 18:00:00 35. 997. 43. 992. 35.
2004-11-29 00:00:00 35. 997. 40. 994. 35.
2004-11-29 06:00:00 30. 1000. 35. 997. 30.
2004-11-29 12:00:00 30. 1000. 35. 997. 30.
2004-11-29 18:00:00 30. 1000. 35. 997. 30.
2004-11-30 00:00:00 30. 1000. 33. 998. 30.
2004-11-30 06:00:00 30. 1000. 30. 1000. 30.
2004-11-30 12:00:00 30. 1000. 30. 1001. 30.
2004-11-30 18:00:00 30. 1000. 27. 1003. 30.
2004-12-01 00:00:00 30. 1000. 25. 1004. 30.
2004-12-01 06:00:00 30. 1000. 25. 1005. 30.
2004-12-01 12:00:00 30. 1000. 25. 1006. 30.
jtwc_sh reunion neumann
2004-12-01 18:00:00 30. 1000. 25. 1007. 30.
2004-12-02 00:00:00 30. 1000. 25. 1008. 30.
2004-12-02 06:00:00 30. 1000. 25. 1009. 30.
2004-12-02 12:00:00 30. 1000. 25. 1010. 30.
2004-12-02 18:00:00 30. 1000. 20. 1011. 30.
2004-12-03 00:00:00 30. 1000. 20. 1011. 30.
2004-12-03 06:00:00 30. 1000. 20. 1012. 30.
2004-12-03 12:00:00 30. 1000. 20. 1012. 30.
2004-12-03 18:00:00 30. 1000. 1013. 30.
2004-12-04 00:00:00 30. 1000. 1013. 30.
2004-12-04 06:00:00 1013.

top of page Links to source data

Source Source file Format
jtwc_sh bsh042005.txt ATCF
reunion Best-Tracks-NewWMOFormat.txt:Line=572:BENTO WMO (old format)
neumann tracks.sh:Storm=1306:BentoJana:BSH042005:JTWC HURDAT